Time;durP1;ratioP1;P1;durP2;ratioP2;P2;SDS_P1;SDS_P2;PMS_P1;PMS_P2;Temp;Humidity;BMP_temperature;BMP_pressure;BME280_temperature;BME280_humidity;BME280_pressure;Samples;Min_cycle;Max_cycle;Signal;HPM_P1;HPM_P2
2024/01/13 00:01:55;;;;;;;18.80;10.80;;;;;;;-0.08;94.86;100146.56;1813332;79;25596;-51
2024/01/13 00:04:21;;;;;;;19.60;11.03;;;;;;;-0.08;94.97;100147.36;1810489;79;28027;-51
2024/01/13 00:06:47;;;;;;;22.37;12.15;;;;;;;-0.09;94.91;100139.09;1810388;79;25486;-51
2024/01/13 00:09:13;;;;;;;23.50;11.97;;;;;;;-0.08;95.16;100146.03;1810517;79;25525;-54
2024/01/13 00:11:39;;;;;;;20.80;11.65;;;;;;;-0.08;95.17;100146.56;1810476;79;26466;-55
2024/01/13 00:14:06;;;;;;;21.33;11.45;;;;;;;-0.08;95.12;100148.70;1810457;79;25375;-52
2024/01/13 00:16:32;;;;;;;20.60;10.68;;;;;;;-0.06;95.31;100156.43;1810415;79;27554;-52
2024/01/13 00:18:58;;;;;;;19.20;10.03;;;;;;;-0.05;95.33;100152.70;1810389;79;25544;-51
2024/01/13 00:21:24;;;;;;;22.50;11.50;;;;;;;-0.07;95.23;100158.30;1810516;79;25474;-51
2024/01/13 00:23:57;;;;;;;18.35;10.65;;;;;;;-0.06;95.30;100155.11;1810405;79;25609;-52
2024/01/13 00:26:24;;;;;;;22.32;11.60;;;;;;;-0.07;95.33;100154.81;1810563;79;25624;-51
2024/01/13 00:28:50;;;;;;;18.20;11.00;;;;;;;-0.08;95.37;100134.07;1810512;79;27798;-55
2024/01/13 00:31:16;;;;;;;16.65;9.43;;;;;;;-0.09;95.44;100139.09;1810391;79;25474;-51
2024/01/13 00:33:43;;;;;;;17.57;10.50;;;;;;;-0.09;95.36;100135.11;1810452;79;25552;-56
2024/01/13 00:36:10;;;;;;;16.87;9.95;;;;;;;-0.09;95.40;100142.28;1810382;79;26088;-55
2024/01/13 00:38:37;;;;;;;19.75;10.93;;;;;;;-0.10;95.38;100140.16;1810501;77;25636;-55
2024/01/13 00:41:05;;;;;;;19.95;11.00;;;;;;;-0.10;95.40;100141.99;1810500;79;27648;-52
2024/01/13 00:43:33;;;;;;;15.63;9.43;;;;;;;-0.09;95.41;100138.30;1810345;79;25628;-52
2024/01/13 00:45:59;;;;;;;17.02;10.25;;;;;;;-0.09;95.58;100144.95;1810437;79;25534;-55
2024/01/13 00:48:25;;;;;;;21.52;11.40;;;;;;;-0.09;95.57;100128.45;1810421;79;25459;-52
2024/01/13 00:50:52;;;;;;;20.27;11.65;;;;;;;-0.08;95.71;100130.08;1810470;79;25435;-52
2024/01/13 00:53:18;;;;;;;19.23;11.90;;;;;;;-0.08;95.87;100132.73;1810405;79;27516;-53
2024/01/13 00:55:44;;;;;;;18.20;10.65;;;;;;;-0.03;95.94;100126.70;1810288;79;25600;-53
2024/01/13 00:58:11;;;;;;;18.37;11.75;;;;;;;-0.01;95.84;100133.91;1810441;79;25440;-52
2024/01/13 01:00:37;;;;;;;20.48;11.60;;;;;;;-0.01;95.94;100125.40;1810409;79;25523;-53
2024/01/13 01:03:04;;;;;;;15.38;9.60;;;;;;;-0.01;95.80;100136.03;1810658;79;25407;-52
2024/01/13 01:05:30;;;;;;;16.05;10.45;;;;;;;-0.01;95.87;100120.61;1810555;79;27765;-52
2024/01/13 01:07:57;;;;;;;19.25;11.38;;;;;;;0.00;95.92;100126.23;1810490;79;25434;-53
2024/01/13 01:10:23;;;;;;;17.85;10.50;;;;;;;-0.02;96.03;100105.19;1810601;79;25521;-52
2024/01/13 01:12:49;;;;;;;18.98;11.45;;;;;;;-0.01;95.90;100113.97;1810506;79;25502;-54
2024/01/13 01:15:15;;;;;;;19.48;12.43;;;;;;;-0.01;95.91;100123.27;1810644;79;25460;-54
2024/01/13 01:17:41;;;;;;;19.65;11.22;;;;;;;0.01;95.84;100125.69;1810569;79;27506;-55
2024/01/13 01:20:11;;;;;;;20.88;12.15;;;;;;;0.01;95.76;100125.69;1810522;79;25568;-54
2024/01/13 01:22:37;;;;;;;17.85;11.15;;;;;;;0.01;95.82;100124.36;1810715;79;25566;-52
2024/01/13 01:25:06;;;;;;;17.40;11.20;;;;;;;0.01;95.96;100131.02;1810563;79;25521;-52
2024/01/13 01:27:33;;;;;;;21.33;11.80;;;;;;;0.02;95.80;100125.95;1810631;79;25479;-52
2024/01/13 01:29:59;;;;;;;16.55;10.08;;;;;;;0.02;95.79;100130.77;1810555;79;28093;-55
2024/01/13 01:32:25;;;;;;;13.93;9.83;;;;;;;0.03;95.85;100132.90;1810480;79;25442;-52
2024/01/13 01:34:51;;;;;;;17.95;10.03;;;;;;;0.03;95.66;100127.05;1810531;79;25544;-53
2024/01/13 01:37:17;;;;;;;18.87;11.00;;;;;;;0.06;95.70;100122.58;1808468;79;25562;-52
2024/01/13 01:39:44;;;;;;;15.85;9.23;;;;;;;0.04;95.51;100121.22;1798432;79;25436;-54
2024/01/13 01:42:10;;;;;;;18.75;10.43;;;;;;;0.06;95.56;100113.80;1798355;79;27467;-52
2024/01/13 01:44:36;;;;;;;17.82;10.32;;;;;;;0.05;95.45;100122.31;1765086;81;25401;-52
2024/01/13 01:47:05;;;;;;;18.80;10.10;;;;;;;0.06;95.39;100116.45;1798368;79;25374;-51
2024/01/13 01:49:31;;;;;;;17.90;9.78;;;;;;;0.04;95.31;100111.38;1765300;81;25562;-51
2024/01/13 01:51:57;;;;;;;17.15;9.33;;;;;;;0.05;95.29;100108.19;1798342;79;25376;-51
2024/01/13 01:54:24;;;;;;;17.55;9.35;;;;;;;0.04;95.25;100114.04;1765173;81;27453;-51
2024/01/13 01:56:51;;;;;;;17.57;9.35;;;;;;;0.05;95.28;100106.36;1798182;79;25415;-50
2024/01/13 01:59:18;;;;;;;14.80;9.35;;;;;;;0.06;95.38;100113.27;1765265;81;25603;-51
2024/01/13 02:01:47;;;;;;;18.85;10.13;;;;;;;0.07;95.30;100100.27;1798338;79;26330;-52
2024/01/13 02:04:15;;;;;;;16.97;9.48;;;;;;;0.07;95.10;100095.45;1765120;81;25567;-51
2024/01/13 02:06:43;;;;;;;15.28;9.20;;;;;;;0.06;95.12;100085.34;1798376;79;27469;-53
2024/01/13 02:09:12;;;;;;;15.72;9.33;;;;;;;0.05;95.07;100083.75;1765008;81;27313;-53
2024/01/13 02:11:38;;;;;;;15.50;10.15;;;;;;;0.06;95.05;100079.23;1798461;79;25631;-52
2024/01/13 02:14:05;;;;;;;16.37;10.35;;;;;;;0.06;95.02;100068.59;1765128;81;26091;-51
2024/01/13 02:16:32;;;;;;;16.42;10.65;;;;;;;0.04;94.90;100068.83;1798295;79;25384;-55
2024/01/13 02:18:58;;;;;;;15.58;9.58;;;;;;;0.03;94.79;100052.58;1765142;81;27435;-53
2024/01/13 02:21:26;;;;;;;14.75;9.50;;;;;;;0.03;94.89;100073.06;1798183;79;26163;-54
2024/01/13 02:23:52;;;;;;;17.23;10.70;;;;;;;0.03;94.75;100071.73;1765095;81;25463;-51
2024/01/13 02:26:19;;;;;;;18.60;10.40;;;;;;;0.02;94.84;100062.95;1798270;79;25713;-51
2024/01/13 02:28:45;;;;;;;15.72;10.15;;;;;;;0.05;95.04;100049.68;1765272;81;25649;-52
2024/01/13 02:31:14;;;;;;;15.28;9.83;;;;;;;0.05;94.99;100040.37;1798294;79;27490;-55
2024/01/13 02:33:41;;;;;;;19.45;10.95;;;;;;;0.06;94.93;100042.79;1765197;81;25582;-52
2024/01/13 02:36:08;;;;;;;19.23;11.43;;;;;;;0.06;94.76;100046.78;1798686;79;25608;-51
2024/01/13 02:38:34;;;;;;;18.45;11.70;;;;;;;0.03;94.72;100043.80;1794039;80;25511;-51
2024/01/13 02:41:00;;;;;;;17.57;10.38;;;;;;;-0.01;94.79;100045.62;1813376;79;25562;-51
2024/01/13 02:43:26;;;;;;;16.27;10.38;;;;;;;-0.04;94.82;100038.66;1794083;80;27495;-51
2024/01/13 02:45:53;;;;;;;17.70;10.93;;;;;;;-0.08;94.76;100034.36;1813201;79;25683;-54
2024/01/13 02:48:21;;;;;;;18.00;11.35;;;;;;;-0.08;94.88;100029.04;1794064;79;25396;-51
2024/01/13 02:50:56;;;;;;;18.35;10.80;;;;;;;-0.08;95.04;100034.89;1813448;79;26565;-51
2024/01/13 02:53:22;;;;;;;16.80;9.98;;;;;;;-0.12;94.72;100029.77;1762775;81;25570;-53
2024/01/13 02:55:48;;;;;;;15.55;10.15;;;;;;;-0.14;94.78;100025.22;1781160;80;27533;-51
2024/01/13 02:58:14;;;;;;;18.52;10.63;;;;;;;-0.16;94.83;100019.35;1762594;81;25754;-53
2024/01/13 03:00:41;;;;;;;14.55;9.08;;;;;;;-0.16;94.81;100029.98;1781270;80;25568;-51
2024/01/13 03:03:08;;;;;;;15.03;8.98;;;;;;;-0.18;94.82;100016.14;1778417;80;27642;-53
2024/01/13 03:05:35;;;;;;;18.42;9.80;;;;;;;-0.21;94.79;100021.41;1778568;80;25392;-52
2024/01/13 03:08:01;;;;;;;14.05;8.83;;;;;;;-0.23;94.84;100029.62;1778550;80;27504;-55
2024/01/13 03:10:31;;;;;;;17.75;10.75;;;;;;;-0.22;94.84;100031.77;1778454;80;25605;-53
2024/01/13 03:12:59;;;;;;;15.95;10.23;;;;;;;-0.21;95.00;100036.82;1778451;80;25533;-55
2024/01/13 03:15:25;;;;;;;15.18;10.28;;;;;;;-0.22;95.03;100035.76;1778465;80;26345;-53
2024/01/13 03:17:51;;;;;;;16.17;9.80;;;;;;;-0.22;95.09;100028.58;1778521;80;25459;-52
2024/01/13 03:20:17;;;;;;;15.78;9.68;;;;;;;-0.20;94.97;100040.30;1778493;80;27533;-55
2024/01/13 03:22:45;;;;;;;18.05;9.60;;;;;;;-0.21;94.97;100038.69;1778411;80;25463;-56
2024/01/13 03:25:13;;;;;;;15.60;10.23;;;;;;;-0.19;94.96;100029.94;1778490;80;25413;-54
2024/01/13 03:27:40;;;;;;;15.25;9.70;;;;;;;-0.18;94.98;100048.83;1778460;80;25537;-52
2024/01/13 03:30:11;;;;;;;15.38;9.70;;;;;;;-0.15;94.96;100050.19;1778556;80;25685;-52
2024/01/13 03:32:37;;;;;;;16.90;9.10;;;;;;;-0.14;94.87;100040.64;1778521;80;27481;-51
2024/01/13 03:35:08;;;;;;;18.00;9.53;;;;;;;-0.14;94.80;100020.70;1778357;80;27358;-54
2024/01/13 03:37:34;;;;;;;11.73;7.58;;;;;;;-0.13;94.72;100026.31;1762917;80;25724;-52
2024/01/13 03:40:00;;;;;;;12.78;8.13;;;;;;;-0.12;94.65;100037.23;1729147;83;25560;-52
2024/01/13 03:42:26;;;;;;;13.88;8.03;;;;;;;-0.10;94.68;100044.44;1760994;81;25519;-52
2024/01/13 03:44:54;;;;;;;16.90;8.75;;;;;;;-0.07;94.73;100036.48;1729212;83;28055;-55
2024/01/13 03:47:24;;;;;;;12.33;8.15;;;;;;;-0.04;94.54;100039.98;1761103;81;25419;-52
2024/01/13 03:49:50;;;;;;;13.10;8.35;;;;;;;-0.04;94.50;100044.77;1729390;83;25554;-52
2024/01/13 03:52:16;;;;;;;15.25;8.28;;;;;;;-0.04;94.50;100049.30;1760997;81;26140;-55
2024/01/13 03:54:44;;;;;;;13.08;8.08;;;;;;;-0.05;94.50;100038.37;1729222;83;25561;-53
2024/01/13 03:57:10;;;;;;;14.65;7.97;;;;;;;-0.05;94.45;100037.86;1760954;81;27456;-55
2024/01/13 03:59:36;;;;;;;15.72;9.30;;;;;;;-0.06;94.47;100030.13;1729101;83;25438;-53
2024/01/13 04:02:06;;;;;;;14.20;8.53;;;;;;;-0.05;94.48;100027.23;1760986;81;25488;-52
2024/01/13 04:04:32;;;;;;;15.65;8.65;;;;;;;-0.05;94.49;100034.38;1729401;83;25552;-53
2024/01/13 04:06:58;;;;;;;16.10;9.53;;;;;;;-0.03;94.44;100030.44;1761137;81;25408;-53
2024/01/13 04:09:24;;;;;;;16.52;8.65;;;;;;;-0.01;94.47;100016.91;1729283;83;27483;-55
2024/01/13 04:11:50;;;;;;;16.65;8.28;;;;;;;-0.03;94.46;100031.77;1761027;81;25562;-52
2024/01/13 04:14:16;;;;;;;11.38;7.40;;;;;;;-0.03;94.51;100037.09;1729124;83;25664;-53
2024/01/13 04:16:42;;;;;;;15.40;8.53;;;;;;;-0.03;94.43;100037.09;1760917;81;25608;-53
2024/01/13 04:19:10;;;;;;;14.18;7.75;;;;;;;-0.04;94.48;100036.00;1729224;83;25560;-56
2024/01/13 04:21:36;;;;;;;16.10;8.58;;;;;;;-0.03;94.51;100043.73;1760986;81;27540;-53
2024/01/13 04:24:06;;;;;;;17.50;8.55;;;;;;;-0.03;94.50;100036.30;1704191;83;27463;-55
2024/01/13 04:26:36;;;;;;;14.40;8.53;;;;;;;-0.04;94.52;100033.34;1761185;81;25393;-54
2024/01/13 04:29:02;;;;;;;13.85;7.80;;;;;;;-0.04;94.55;100031.48;1728418;83;27736;-53
2024/01/13 04:31:28;;;;;;;14.33;8.08;;;;;;;-0.05;94.71;100035.70;1760984;81;25444;-54
2024/01/13 04:33:55;;;;;;;17.27;9.28;;;;;;;-0.07;94.76;100033.32;1729155;83;27561;-52
2024/01/13 04:36:21;;;;;;;13.58;7.55;;;;;;;-0.05;94.83;100029.06;1760992;81;25543;-52
2024/01/13 04:38:50;;;;;;;18.48;8.68;;;;;;;-0.05;94.87;100032.55;1733950;82;25552;-54
2024/01/13 04:41:16;;;;;;;17.85;9.10;;;;;;;-0.06;94.86;100030.92;1766957;81;26330;-54
2024/01/13 04:43:45;;;;;;;19.15;9.23;;;;;;;-0.06;94.98;100030.13;1734952;82;25624;-56
2024/01/13 04:46:15;;;;;;;13.75;7.47;;;;;;;-0.08;94.94;100035.69;1766859;81;27540;-52
2024/01/13 04:48:41;;;;;;;16.77;8.68;;;;;;;-0.07;95.06;100034.65;1734779;82;25379;-52
2024/01/13 04:51:08;;;;;;;16.77;10.35;;;;;;;-0.11;95.06;100018.89;1766836;81;25562;-53
2024/01/13 04:53:36;;;;;;;16.82;9.38;;;;;;;-0.09;95.06;100026.09;1734901;82;25509;-52
2024/01/13 04:56:06;;;;;;;16.37;9.58;;;;;;;-0.09;95.18;100024.76;1766957;81;25335;-54
2024/01/13 04:58:32;;;;;;;16.48;9.68;;;;;;;-0.09;95.22;100015.45;1734838;82;27505;-56
2024/01/13 05:00:58;;;;;;;14.07;9.28;;;;;;;-0.09;95.21;100028.75;1766787;81;25586;-52
2024/01/13 05:03:24;;;;;;;19.77;10.10;;;;;;;-0.09;95.35;100032.73;1734790;82;25579;-52
2024/01/13 05:05:50;;;;;;;21.07;10.25;;;;;;;-0.10;95.40;100025.00;1766767;81;26236;-55
2024/01/13 05:08:19;;;;;;;20.92;11.43;;;;;;;-0.11;95.52;100017.55;1734966;82;25486;-54
2024/01/13 05:10:45;;;;;;;20.82;11.28;;;;;;;-0.10;95.65;100023.67;1766830;81;27506;-55
2024/01/13 05:13:13;;;;;;;22.52;10.90;;;;;;;-0.12;95.64;100021.28;1734674;82;25697;-53
2024/01/13 05:15:39;;;;;;;17.42;10.65;;;;;;;-0.12;95.77;100015.97;1766860;81;25448;-52
2024/01/13 05:18:07;;;;;;;22.10;11.83;;;;;;;-0.14;95.94;100024.69;1734739;82;25506;-56
2024/01/13 05:20:35;;;;;;;24.77;12.53;;;;;;;-0.13;96.04;100024.19;1766866;81;25407;-53
2024/01/13 05:23:02;;;;;;;26.87;13.00;;;;;;;-0.12;96.16;100025.78;1734780;82;28139;-52
2024/01/13 05:25:30;;;;;;;20.75;11.40;;;;;;;-0.14;96.28;100019.91;1766873;81;25730;-52
2024/01/13 05:27:56;;;;;;;20.50;11.20;;;;;;;-0.14;96.47;100026.55;1734743;82;25547;-55
2024/01/13 05:30:28;;;;;;;18.45;11.57;;;;;;;-0.16;96.53;100029.98;1766774;81;25840;-52
2024/01/13 05:32:54;;;;;;;23.67;12.63;;;;;;;-0.17;96.74;100023.87;1734774;82;25471;-52
2024/01/13 05:35:20;;;;;;;21.48;12.05;;;;;;;-0.17;96.73;100037.66;1766766;81;27473;-52
2024/01/13 05:37:46;;;;;;;24.20;11.78;;;;;;;-0.18;96.91;100053.36;1734379;82;25487;-54
2024/01/13 05:40:12;;;;;;;21.15;11.43;;;;;;;-0.19;96.89;100047.21;1766800;81;25393;-51
2024/01/13 05:42:38;;;;;;;24.00;11.88;;;;;;;-0.19;97.00;100048.54;1734701;82;34818;-52
2024/01/13 05:45:09;;;;;;;21.85;11.03;;;;;;;-0.19;97.03;100052.53;1766842;81;25447;-54
2024/01/13 05:47:35;;;;;;;22.95;12.07;;;;;;;-0.18;97.02;100056.02;1734790;82;28322;-54
2024/01/13 05:50:06;;;;;;;25.90;13.20;;;;;;;-0.17;97.14;100052.29;1766671;81;25549;-53
2024/01/13 05:52:32;;;;;;;21.07;12.80;;;;;;;-0.19;97.17;100049.88;1734808;82;25556;-52
2024/01/13 05:55:00;;;;;;;23.90;12.90;;;;;;;-0.16;97.23;100056.57;1766798;81;25656;-52
2024/01/13 05:57:31;;;;;;;22.15;13.15;;;;;;;-0.18;97.23;100055.48;1734868;82;25648;-56
2024/01/13 05:59:57;;;;;;;19.98;12.33;;;;;;;-0.18;97.25;100055.48;1766951;81;27558;-52
2024/01/13 06:02:23;;;;;;;22.30;12.10;;;;;;;-0.20;97.41;100046.95;1734630;82;25626;-55
2024/01/13 06:04:49;;;;;;;19.95;11.65;;;;;;;-0.18;97.47;100046.17;1766767;81;25571;-54
2024/01/13 06:07:15;;;;;;;22.10;12.53;;;;;;;-0.19;97.42;100044.55;1734714;82;25534;-52
2024/01/13 06:09:42;;;;;;;18.20;12.43;;;;;;;-0.18;97.55;100041.39;1766751;81;25388;-52
2024/01/13 06:12:13;;;;;;;19.90;12.43;;;;;;;-0.19;97.31;100044.55;1734691;82;27512;-52
2024/01/13 06:14:41;;;;;;;19.52;11.03;;;;;;;-0.19;97.37;100044.55;1766715;81;25631;-54
2024/01/13 06:17:09;;;;;;;24.95;13.98;;;;;;;-0.20;97.33;100035.78;1734729;82;25618;-53
2024/01/13 06:19:35;;;;;;;24.55;13.50;;;;;;;-0.18;97.47;100038.20;1766744;81;25509;-53
2024/01/13 06:22:04;;;;;;;20.75;13.68;;;;;;;-0.16;97.46;100055.23;1734705;82;25457;-54
2024/01/13 06:24:30;;;;;;;18.67;12.25;;;;;;;-0.15;97.54;100043.54;1766903;81;28417;-54
2024/01/13 06:26:57;;;;;;;20.08;13.20;;;;;;;-0.17;97.52;100046.47;1734532;82;25672;-52
2024/01/13 06:29:23;;;;;;;20.65;12.90;;;;;;;-0.17;97.46;100045.14;1766768;81;25600;-52
2024/01/13 06:31:49;;;;;;;24.40;12.98;;;;;;;-0.17;97.49;100037.16;1734623;82;25601;-52
2024/01/13 06:34:15;;;;;;;18.65;13.13;;;;;;;-0.15;97.54;100040.37;1766772;81;25633;-55
2024/01/13 06:36:43;;;;;;;19.48;12.23;;;;;;;-0.12;97.56;100050.53;1734660;82;27552;-55
2024/01/13 06:39:09;;;;;;;19.23;12.73;;;;;;;-0.08;97.62;100047.66;1766584;81;25543;-54
2024/01/13 06:41:35;;;;;;;19.85;10.65;;;;;;;-0.04;97.65;100053.28;1734734;82;25219;-54
2024/01/13 06:44:02;;;;;;;20.15;12.13;;;;;;;-0.03;97.55;100042.41;1766707;81;25612;-55
2024/01/13 06:46:28;;;;;;;17.92;10.82;;;;;;;0.02;97.76;100045.67;1734700;82;25519;-55
2024/01/13 06:48:54;;;;;;;18.15;10.85;;;;;;;0.01;97.38;100044.05;1766763;81;27561;-53
2024/01/13 06:51:20;;;;;;;18.67;10.98;;;;;;;0.04;97.28;100042.23;1734638;82;25380;-52
2024/01/13 06:53:46;;;;;;;18.95;10.50;;;;;;;0.06;97.19;100048.11;1766746;81;25450;-54
2024/01/13 06:56:13;;;;;;;19.80;11.75;;;;;;;0.09;97.10;100054.27;1734652;82;25836;-54
2024/01/13 06:58:39;;;;;;;17.90;10.85;;;;;;;0.15;97.10;100056.47;1766655;81;25586;-55
2024/01/13 07:01:14;;;;;;;17.55;10.50;;;;;;;0.17;96.82;100054.36;1734742;82;27482;-56
2024/01/13 07:03:43;;;;;;;19.52;10.82;;;;;;;0.19;96.92;100052.28;1766734;81;25772;-55
2024/01/13 07:06:09;;;;;;;15.93;10.20;;;;;;;0.23;96.85;100056.59;1734809;82;25448;-55
2024/01/13 07:08:35;;;;;;;18.90;10.08;;;;;;;0.21;96.58;100064.80;1766690;81;25476;-53
2024/01/13 07:11:01;;;;;;;18.60;10.15;;;;;;;0.20;96.42;100065.05;1734737;82;25561;-54
2024/01/13 07:13:29;;;;;;;18.82;9.70;;;;;;;0.20;96.43;100069.84;1766711;81;27903;-53
2024/01/13 07:15:56;;;;;;;18.73;10.35;;;;;;;0.18;96.43;100060.77;1734652;82;25723;-52
2024/01/13 07:18:24;;;;;;;16.60;9.88;;;;;;;0.22;96.44;100061.08;1766723;81;25594;-52
2024/01/13 07:20:52;;;;;;;16.20;9.43;;;;;;;0.25;96.52;100071.77;1734735;82;25901;-52
2024/01/13 07:23:19;;;;;;;13.50;8.83;;;;;;;0.24;96.32;100070.97;1766678;81;25612;-51
2024/01/13 07:25:46;;;;;;;16.90;10.13;;;;;;;0.23;96.20;100068.02;1734646;82;27577;-51
2024/01/13 07:28:12;;;;;;;15.50;8.93;;;;;;;0.24;96.23;100078.13;1766562;81;27502;-53
2024/01/13 07:30:38;;;;;;;14.55;8.73;;;;;;;0.25;96.33;100075.22;1734660;82;25551;-54
2024/01/13 07:33:04;;;;;;;15.10;9.45;;;;;;;0.26;96.35;100068.87;1766676;81;25545;-51
2024/01/13 07:35:30;;;;;;;18.12;10.48;;;;;;;0.27;96.25;100082.43;1734623;82;25164;-51
2024/01/13 07:37:57;;;;;;;15.75;9.88;;;;;;;0.27;96.22;100077.11;1766626;81;27420;-55
2024/01/13 07:40:23;;;;;;;20.82;10.35;;;;;;;0.27;96.35;100081.09;1734736;82;25514;-53
2024/01/13 07:42:49;;;;;;;15.58;9.65;;;;;;;0.27;96.38;100085.09;1766787;81;25403;-54
2024/01/13 07:45:15;;;;;;;16.90;10.28;;;;;;;0.28;96.47;100089.91;1734723;82;26066;-51
2024/01/13 07:47:43;;;;;;;13.20;8.38;;;;;;;0.28;96.47;100084.05;1766679;81;25526;-52
2024/01/13 07:50:11;;;;;;;15.20;8.95;;;;;;;0.29;96.47;100080.86;1734752;82;27686;-54
2024/01/13 07:52:37;;;;;;;16.57;8.45;;;;;;;0.26;96.44;100084.83;1766722;81;25380;-54
2024/01/13 07:55:07;;;;;;;18.52;9.75;;;;;;;0.25;96.49;100084.53;1734657;82;25608;-51
2024/01/13 07:57:36;;;;;;;17.75;10.48;;;;;;;0.23;96.46;100082.66;1766680;81;25409;-52
2024/01/13 08:00:09;;;;;;;21.17;11.88;;;;;;;0.22;96.60;100080.23;1734742;82;25568;-51
2024/01/13 08:02:35;;;;;;;17.90;11.00;;;;;;;0.23;96.73;100072.02;1766760;81;27543;-52
2024/01/13 08:05:01;;;;;;;23.00;12.45;;;;;;;0.22;96.77;100079.70;1734592;82;25723;-52
2024/01/13 08:07:27;;;;;;;23.47;12.78;;;;;;;0.23;96.85;100079.99;1766722;81;25379;-53
2024/01/13 08:09:53;;;;;;;21.48;12.00;;;;;;;0.24;96.86;100076.30;1734690;82;26013;-51
2024/01/13 08:12:20;;;;;;;23.27;13.80;;;;;;;0.25;96.85;100076.55;1766909;81;25451;-52
2024/01/13 08:14:46;;;;;;;25.27;14.65;;;;;;;0.24;96.86;100078.95;1734719;82;28046;-51
2024/01/13 08:17:15;;;;;;;24.85;14.58;;;;;;;0.24;96.88;100079.45;1765421;81;25669;-54
2024/01/13 08:19:41;;;;;;;24.52;13.48;;;;;;;0.24;97.14;100084.27;1734776;82;25596;-52
2024/01/13 08:22:07;;;;;;;23.77;12.95;;;;;;;0.23;97.26;100082.66;1766828;81;26029;-53
2024/01/13 08:24:34;;;;;;;22.55;11.88;;;;;;;0.23;97.39;100078.66;1734848;82;25478;-53
2024/01/13 08:27:00;;;;;;;25.80;13.50;;;;;;;0.21;97.32;100067.47;1766841;81;27456;-55
2024/01/13 08:29:26;;;;;;;25.52;14.15;;;;;;;0.23;97.37;100073.34;1734783;82;25865;-56
2024/01/13 08:31:57;;;;;;;26.25;13.70;;;;;;;0.25;97.67;100068.58;1766911;81;25590;-51
2024/01/13 08:34:24;;;;;;;22.65;13.32;;;;;;;0.28;97.76;100072.08;1734708;82;25698;-54
2024/01/13 08:36:50;;;;;;;29.45;14.38;;;;;;;0.33;97.79;100070.81;1766859;81;25416;-53
2024/01/13 08:39:17;;;;;;;30.70;15.40;;;;;;;0.33;97.56;100071.34;1727853;82;27473;-52
2024/01/13 08:41:43;;;;;;;29.37;15.32;;;;;;;0.39;97.56;100080.98;1778523;80;25770;-53
2024/01/13 08:44:11;;;;;;;30.12;14.93;;;;;;;0.39;97.44;100077.00;1778525;80;25248;-53
2024/01/13 08:46:37;;;;;;;30.68;16.93;;;;;;;0.39;97.36;100074.87;1778533;80;25629;-54
2024/01/13 08:49:05;;;;;;;31.23;17.80;;;;;;;0.39;97.50;100074.87;1778591;80;25576;-55
2024/01/13 08:51:32;;;;;;;26.82;16.02;;;;;;;0.40;97.61;100075.16;1778615;80;27565;-52
2024/01/13 08:53:58;;;;;;;33.38;16.32;;;;;;;0.42;97.62;100083.70;1778483;80;25876;-56
2024/01/13 08:56:24;;;;;;;34.25;17.73;;;;;;;0.44;97.69;100085.58;1778612;80;25637;-55
2024/01/13 08:58:51;;;;;;;35.88;19.52;;;;;;;0.46;97.86;100088.29;1778536;80;25561;-54
2024/01/13 09:01:18;;;;;;;36.08;18.77;;;;;;;0.48;97.89;100092.04;1778663;80;25559;-54
2024/01/13 09:03:46;;;;;;;28.83;17.42;;;;;;;0.52;98.02;100094.47;1778584;80;27570;-56
2024/01/13 09:06:13;;;;;;;32.23;17.02;;;;;;;0.51;97.88;100088.86;1778611;80;25632;-54
2024/01/13 09:08:39;;;;;;;29.67;16.57;;;;;;;0.53;97.79;100083.59;1778556;80;25474;-56
2024/01/13 09:11:07;;;;;;;31.97;16.00;;;;;;;0.55;97.44;100087.34;1778549;80;26483;-52
2024/01/13 09:13:37;;;;;;;29.25;16.00;;;;;;;0.55;97.46;100087.34;1778676;80;25459;-56
2024/01/13 09:16:06;;;;;;;28.23;14.50;;;;;;;0.57;97.35;100087.88;1778618;80;27422;-53
2024/01/13 09:18:32;;;;;;;28.57;15.58;;;;;;;0.58;97.44;100088.68;1778610;80;32802;-54
2024/01/13 09:20:58;;;;;;;28.70;16.17;;;;;;;0.57;97.37;100075.91;1778519;80;25487;-55
2024/01/13 09:23:25;;;;;;;30.80;16.85;;;;;;;0.60;97.46;100070.09;1778559;80;25628;-52
2024/01/13 09:25:51;;;;;;;31.45;17.35;;;;;;;0.59;97.12;100065.02;1778655;80;25551;-54
2024/01/13 09:28:17;;;;;;;26.85;16.00;;;;;;;0.58;96.82;100063.39;1778552;80;27531;-55
2024/01/13 09:30:43;;;;;;;24.43;14.10;;;;;;;0.52;96.50;100058.01;1778521;80;25543;-52
2024/01/13 09:33:09;;;;;;;27.95;12.68;;;;;;;0.46;96.23;100055.53;1778551;80;25492;-52
2024/01/13 09:35:36;;;;;;;26.33;14.18;;;;;;;0.42;96.30;100051.77;1778517;80;25606;-51
2024/01/13 09:38:05;;;;;;;32.00;16.75;;;;;;;0.42;96.42;100040.59;1778588;80;25625;-54
2024/01/13 09:40:39;;;;;;;29.60;17.40;;;;;;;0.42;96.25;100045.91;1792604;80;27556;-51
2024/01/13 09:43:31;;;;;;;33.75;18.23;;;;;;;0.43;96.63;100049.40;1793155;80;25542;-54
2024/01/13 09:46:03;;;;;;;24.87;13.28;;;;;;;0.44;96.42;100046.46;1793826;80;25636;-53
2024/01/13 09:48:32;;;;;;;28.42;14.85;;;;;;;0.41;95.80;100044.82;1793789;80;25554;-51
2024/01/13 09:51:03;;;;;;;25.35;14.18;;;;;;;0.34;95.57;100035.19;1793849;80;25452;-55
2024/01/13 09:53:33;;;;;;;20.17;13.30;;;;;;;0.34;95.66;100034.36;1766784;81;27886;-52
2024/01/13 09:56:14;;;;;;;27.77;13.30;;;;;;;0.31;95.87;100037.00;1766697;81;25566;-54
2024/01/13 09:58:40;;;;;;;20.62;12.30;;;;;;;0.31;95.72;100041.53;1734814;82;25468;-54
2024/01/13 10:01:08;;;;;;;24.25;13.48;;;;;;;0.27;95.43;100039.06;1766682;81;25496;-53
2024/01/13 10:03:36;;;;;;;22.32;13.05;;;;;;;0.22;95.12;100036.34;1734771;82;25593;-54
2024/01/13 10:06:07;;;;;;;21.45;11.53;;;;;;;0.17;95.27;100030.42;1766743;81;27622;-52
2024/01/13 10:08:35;;;;;;;20.85;12.45;;;;;;;0.18;95.43;100032.84;1766728;81;25561;-56
2024/01/13 10:11:03;;;;;;;23.25;12.07;;;;;;;0.15;95.14;100028.03;1766784;81;25569;-57
2024/01/13 10:13:31;;;;;;;19.32;11.43;;;;;;;0.10;95.17;100010.68;1734719;82;27763;-56
2024/01/13 10:15:58;;;;;;;24.12;11.73;;;;;;;0.13;95.19;100006.70;1766851;81;25170;-54
2024/01/13 10:18:26;;;;;;;20.70;12.15;;;;;;;0.15;95.30;100005.42;1734743;82;27495;-57
2024/01/13 10:20:52;;;;;;;20.23;11.38;;;;;;;0.18;95.43;100000.92;1766708;81;25461;-58
2024/01/13 10:23:19;;;;;;;20.62;11.48;;;;;;;0.24;95.45;99992.49;1734737;82;25608;-56
2024/01/13 10:25:46;;;;;;;20.10;10.48;;;;;;;0.27;95.21;99999.95;1766753;81;25473;-54
2024/01/13 10:28:13;;;;;;;23.10;12.30;;;;;;;0.33;95.44;99993.66;1734799;82;25598;-57
2024/01/13 10:30:43;;;;;;;23.50;12.35;;;;;;;0.40;95.40;99990.02;1766815;81;27755;-54
2024/01/13 10:33:12;;;;;;;27.05;11.85;;;;;;;0.46;95.16;99990.33;1705267;82;25718;-53
2024/01/13 10:35:39;;;;;;;27.05;12.95;;;;;;;0.45;94.50;99988.73;1766826;81;25416;-51
2024/01/13 10:38:07;;;;;;;40.90;21.60;;;;;;;0.42;94.15;99994.02;1734705;82;26024;-53
2024/01/13 10:40:34;;;;;;;40.05;20.40;;;;;;;0.43;94.11;99989.52;1766940;79;25610;-50
2024/01/13 10:43:06;;;;;;;29.20;15.13;;;;;;;0.42;94.00;99983.91;1734710;82;27878;-53
2024/01/13 10:45:36;;;;;;;31.73;15.72;;;;;;;0.37;93.68;99985.98;1766708;81;25602;-51
2024/01/13 10:48:19;;;;;;;33.55;15.85;;;;;;;0.32;93.30;99985.92;1766401;80;25621;-52
2024/01/13 10:50:49;;;;;;;35.00;15.80;;;;;;;0.26;93.43;99978.95;1732946;82;25525;-51
2024/01/13 10:53:28;;;;;;;32.78;16.90;;;;;;;0.15;93.23;99985.48;1766775;81;25439;-52
2024/01/13 10:55:59;;;;;;;33.48;16.37;;;;;;;0.04;93.29;99973.62;1705785;82;27512;-51
2024/01/13 10:58:28;;;;;;;30.75;15.03;;;;;;;-0.07;93.44;99965.52;1766661;81;25605;-50
2024/01/13 11:00:58;;;;;;;31.10;15.38;;;;;;;-0.15;93.57;99961.13;1734661;82;25408;-51
2024/01/13 11:03:28;;;;;;;29.32;15.78;;;;;;;-0.18;93.82;99959.77;1766586;81;25516;-50
2024/01/13 11:05:57;;;;;;;39.03;15.95;;;;;;;-0.22;94.22;99954.15;1734698;82;25641;-51
2024/01/13 11:08:27;;;;;;;34.60;17.73;;;;;;;-0.23;94.32;99945.09;1766699;81;27541;-52
2024/01/13 11:11:00;;;;;;;32.78;16.65;;;;;;;-0.27;94.44;99937.34;1734628;82;26067;-52
2024/01/13 11:13:35;;;;;;;30.25;15.70;;;;;;;-0.30;94.69;99929.84;1766781;81;25605;-52
2024/01/13 11:16:14;;;;;;;32.83;16.40;;;;;;;-0.32;94.64;99935.41;1733821;82;26510;-50
2024/01/13 11:18:52;;;;;;;32.45;16.00;;;;;;;-0.35;94.80;99932.44;1766795;81;25427;-49